sensor_id;sensor_type;location;lat;lon;timestamp;P1;durP1;ratioP1;P2;durP2;ratioP2
61572;SDS011;47465;43.094;12.434;2023-11-19T00:01:23;10.55;;;5.90;;
61572;SDS011;47465;43.094;12.434;2023-11-19T00:04:01;13.70;;;6.70;;
61572;SDS011;47465;43.094;12.434;2023-11-19T00:06:45;12.98;;;6.93;;
61572;SDS011;47465;43.094;12.434;2023-11-19T00:15:28;11.50;;;5.55;;
61572;SDS011;47465;43.094;12.434;2023-11-19T00:18:18;9.38;;;5.40;;
61572;SDS011;47465;43.094;12.434;2023-11-19T00:21:01;8.95;;;5.20;;
61572;SDS011;47465;43.094;12.434;2023-11-19T00:23:46;11.68;;;5.85;;
61572;SDS011;47465;43.094;12.434;2023-11-19T00:32:08;11.23;;;5.97;;
61572;SDS011;47465;43.094;12.434;2023-11-19T00:35:00;17.20;;;5.80;;
61572;SDS011;47465;43.094;12.434;2023-11-19T00:37:31;10.02;;;4.82;;
61572;SDS011;47465;43.094;12.434;2023-11-19T00:40:17;8.52;;;4.38;;
61572;SDS011;47465;43.094;12.434;2023-11-19T00:42:55;10.05;;;4.57;;
61572;SDS011;47465;43.094;12.434;2023-11-19T00:45:38;10.13;;;4.50;;
61572;SDS011;47465;43.094;12.434;2023-11-19T00:48:20;10.63;;;4.70;;
61572;SDS011;47465;43.094;12.434;2023-11-19T00:51:13;7.78;;;4.25;;
61572;SDS011;47465;43.094;12.434;2023-11-19T00:54:15;8.02;;;4.32;;
61572;SDS011;47465;43.094;12.434;2023-11-19T00:56:53;13.20;;;4.88;;
61572;SDS011;47465;43.094;12.434;2023-11-19T01:06:06;11.45;;;5.25;;
61572;SDS011;47465;43.094;12.434;2023-11-19T01:08:52;10.07;;;5.20;;
61572;SDS011;47465;43.094;12.434;2023-11-19T01:11:46;11.75;;;5.80;;
61572;SDS011;47465;43.094;12.434;2023-11-19T01:14:25;8.55;;;4.82;;
61572;SDS011;47465;43.094;12.434;2023-11-19T01:17:15;10.13;;;5.95;;
61572;SDS011;47465;43.094;12.434;2023-11-19T01:20:23;10.98;;;4.90;;
61572;SDS011;47465;43.094;12.434;2023-11-19T01:23:00;10.00;;;5.03;;
61572;SDS011;47465;43.094;12.434;2023-11-19T01:25:38;10.45;;;4.97;;
61572;SDS011;47465;43.094;12.434;2023-11-19T01:28:28;8.75;;;4.38;;
61572;SDS011;47465;43.094;12.434;2023-11-19T01:31:11;10.90;;;5.22;;
61572;SDS011;47465;43.094;12.434;2023-11-19T01:34:00;10.68;;;5.95;;
61572;SDS011;47465;43.094;12.434;2023-11-19T01:37:09;9.40;;;4.85;;
61572;SDS011;47465;43.094;12.434;2023-11-19T01:39:37;8.98;;;5.20;;
61572;SDS011;47465;43.094;12.434;2023-11-19T01:42:30;8.65;;;4.97;;
61572;SDS011;47465;43.094;12.434;2023-11-19T01:45:08;10.30;;;5.50;;
61572;SDS011;47465;43.094;12.434;2023-11-19T01:47:47;10.70;;;5.10;;
61572;SDS011;47465;43.094;12.434;2023-11-19T01:50:26;12.82;;;6.40;;
61572;SDS011;47465;43.094;12.434;2023-11-19T01:56:14;11.02;;;5.57;;
61572;SDS011;47465;43.094;12.434;2023-11-19T01:58:57;14.15;;;6.18;;
61572;SDS011;47465;43.094;12.434;2023-11-19T02:01:27;12.85;;;6.15;;
61572;SDS011;47465;43.094;12.434;2023-11-19T02:04:14;14.00;;;6.47;;
61572;SDS011;47465;43.094;12.434;2023-11-19T02:07:02;10.25;;;5.47;;
61572;SDS011;47465;43.094;12.434;2023-11-19T02:09:32;9.82;;;5.07;;
61572;SDS011;47465;43.094;12.434;2023-11-19T02:12:02;13.10;;;6.55;;
61572;SDS011;47465;43.094;12.434;2023-11-19T02:14:40;13.85;;;6.10;;
61572;SDS011;47465;43.094;12.434;2023-11-19T02:17:35;10.68;;;5.15;;
61572;SDS011;47465;43.094;12.434;2023-11-19T02:20:07;9.27;;;4.40;;
61572;SDS011;47465;43.094;12.434;2023-11-19T02:22:50;10.30;;;5.30;;
61572;SDS011;47465;43.094;12.434;2023-11-19T02:25:32;9.65;;;5.28;;
61572;SDS011;47465;43.094;12.434;2023-11-19T02:28:10;10.25;;;5.20;;
61572;SDS011;47465;43.094;12.434;2023-11-19T02:33:50;7.75;;;4.28;;
61572;SDS011;47465;43.094;12.434;2023-11-19T02:36:21;9.93;;;4.57;;
61572;SDS011;47465;43.094;12.434;2023-11-19T02:46:08;7.97;;;3.80;;
61572;SDS011;47465;43.094;12.434;2023-11-19T02:48:42;10.13;;;4.15;;
61572;SDS011;47465;43.094;12.434;2023-11-19T02:51:17;8.75;;;4.55;;
61572;SDS011;47465;43.094;12.434;2023-11-19T02:53:48;8.40;;;4.05;;
61572;SDS011;47465;43.094;12.434;2023-11-19T02:56:22;11.55;;;4.75;;
61572;SDS011;47465;43.094;12.434;2023-11-19T02:59:19;8.27;;;4.18;;
61572;SDS011;47465;43.094;12.434;2023-11-19T03:02:13;11.27;;;4.07;;
61572;SDS011;47465;43.094;12.434;2023-11-19T03:04:47;10.25;;;4.53;;
61572;SDS011;47465;43.094;12.434;2023-11-19T03:07:53;9.77;;;5.03;;
61572;SDS011;47465;43.094;12.434;2023-11-19T03:10:39;9.52;;;5.05;;
61572;SDS011;47465;43.094;12.434;2023-11-19T03:13:10;10.20;;;5.13;;
61572;SDS011;47465;43.094;12.434;2023-11-19T03:16:01;8.40;;;4.32;;
61572;SDS011;47465;43.094;12.434;2023-11-19T03:19:06;9.02;;;4.68;;
61572;SDS011;47465;43.094;12.434;2023-11-19T03:21:32;8.30;;;4.45;;
61572;SDS011;47465;43.094;12.434;2023-11-19T03:24:06;10.43;;;5.53;;
61572;SDS011;47465;43.094;12.434;2023-11-19T03:26:47;9.63;;;5.28;;
61572;SDS011;47465;43.094;12.434;2023-11-19T03:29:29;8.50;;;4.20;;
61572;SDS011;47465;43.094;12.434;2023-11-19T03:32:18;8.50;;;3.65;;
61572;SDS011;47465;43.094;12.434;2023-11-19T03:34:48;9.38;;;4.07;;
61572;SDS011;47465;43.094;12.434;2023-11-19T03:37:26;6.85;;;3.60;;
61572;SDS011;47465;43.094;12.434;2023-11-19T03:40:19;8.68;;;3.55;;
61572;SDS011;47465;43.094;12.434;2023-11-19T03:42:54;7.63;;;3.50;;
61572;SDS011;47465;43.094;12.434;2023-11-19T03:45:28;8.18;;;3.90;;
61572;SDS011;47465;43.094;12.434;2023-11-19T03:51:16;9.60;;;4.00;;
61572;SDS011;47465;43.094;12.434;2023-11-19T03:54:08;5.70;;;3.88;;
61572;SDS011;47465;43.094;12.434;2023-11-19T03:57:14;8.27;;;3.88;;
61572;SDS011;47465;43.094;12.434;2023-11-19T03:59:54;6.60;;;3.55;;
61572;SDS011;47465;43.094;12.434;2023-11-19T04:02:25;9.93;;;3.95;;
61572;SDS011;47465;43.094;12.434;2023-11-19T04:05:07;8.40;;;3.78;;
61572;SDS011;47465;43.094;12.434;2023-11-19T04:07:44;10.20;;;4.45;;
61572;SDS011;47465;43.094;12.434;2023-11-19T04:10:40;7.05;;;3.50;;
61572;SDS011;47465;43.094;12.434;2023-11-19T04:13:13;8.85;;;3.67;;
61572;SDS011;47465;43.094;12.434;2023-11-19T04:15:42;7.43;;;3.95;;
61572;SDS011;47465;43.094;12.434;2023-11-19T04:18:26;7.53;;;3.50;;
61572;SDS011;47465;43.094;12.434;2023-11-19T04:24:16;6.15;;;3.40;;
61572;SDS011;47465;43.094;12.434;2023-11-19T04:27:04;9.15;;;3.88;;
61572;SDS011;47465;43.094;12.434;2023-11-19T04:29:54;8.05;;;3.50;;
61572;SDS011;47465;43.094;12.434;2023-11-19T04:32:42;7.10;;;3.35;;
61572;SDS011;47465;43.094;12.434;2023-11-19T04:35:17;6.47;;;3.28;;
61572;SDS011;47465;43.094;12.434;2023-11-19T04:37:51;4.47;;;2.97;;
61572;SDS011;47465;43.094;12.434;2023-11-19T04:40:28;7.38;;;3.03;;
61572;SDS011;47465;43.094;12.434;2023-11-19T04:43:09;6.15;;;3.03;;
61572;SDS011;47465;43.094;12.434;2023-11-19T04:45:38;7.78;;;3.17;;
61572;SDS011;47465;43.094;12.434;2023-11-19T04:48:21;6.15;;;3.33;;
61572;SDS011;47465;43.094;12.434;2023-11-19T04:51:02;8.52;;;3.67;;
61572;SDS011;47465;43.094;12.434;2023-11-19T04:53:51;5.13;;;3.05;;
61572;SDS011;47465;43.094;12.434;2023-11-19T04:56:36;8.43;;;4.00;;
61572;SDS011;47465;43.094;12.434;2023-11-19T04:59:09;9.65;;;3.67;;
61572;SDS011;47465;43.094;12.434;2023-11-19T05:01:49;7.10;;;3.95;;
61572;SDS011;47465;43.094;12.434;2023-11-19T05:04:23;8.15;;;3.60;;
61572;SDS011;47465;43.094;12.434;2023-11-19T05:07:00;6.93;;;3.53;;
61572;SDS011;47465;43.094;12.434;2023-11-19T05:09:40;6.90;;;3.25;;
61572;SDS011;47465;43.094;12.434;2023-11-19T05:15:34;6.93;;;3.22;;
61572;SDS011;47465;43.094;12.434;2023-11-19T05:18:09;6.28;;;3.10;;
61572;SDS011;47465;43.094;12.434;2023-11-19T05:20:38;7.20;;;3.38;;
61572;SDS011;47465;43.094;12.434;2023-11-19T05:23:24;6.20;;;3.25;;
61572;SDS011;47465;43.094;12.434;2023-11-19T05:25:59;7.05;;;3.40;;
61572;SDS011;47465;43.094;12.434;2023-11-19T05:28:42;7.90;;;3.50;;
61572;SDS011;47465;43.094;12.434;2023-11-19T05:34:20;5.93;;;2.60;;
61572;SDS011;47465;43.094;12.434;2023-11-19T05:36:50;6.90;;;3.50;;
61572;SDS011;47465;43.094;12.434;2023-11-19T05:39:36;6.63;;;3.88;;
61572;SDS011;47465;43.094;12.434;2023-11-19T05:42:21;5.03;;;3.05;;
61572;SDS011;47465;43.094;12.434;2023-11-19T05:45:02;7.60;;;3.30;;
61572;SDS011;47465;43.094;12.434;2023-11-19T05:53:54;5.57;;;3.38;;
61572;SDS011;47465;43.094;12.434;2023-11-19T05:56:39;6.57;;;3.53;;
61572;SDS011;47465;43.094;12.434;2023-11-19T05:59:33;6.43;;;3.67;;
61572;SDS011;47465;43.094;12.434;2023-11-19T06:02:56;7.05;;;3.60;;
61572;SDS011;47465;43.094;12.434;2023-11-19T06:05:37;6.53;;;3.25;;
61572;SDS011;47465;43.094;12.434;2023-11-19T06:18:00;8.35;;;3.58;;
61572;SDS011;47465;43.094;12.434;2023-11-19T06:20:37;7.28;;;3.92;;
61572;SDS011;47465;43.094;12.434;2023-11-19T06:23:18;9.88;;;4.05;;
61572;SDS011;47465;43.094;12.434;2023-11-19T06:25:58;9.80;;;3.83;;
61572;SDS011;47465;43.094;12.434;2023-11-19T06:28:38;6.28;;;3.42;;
61572;SDS011;47465;43.094;12.434;2023-11-19T06:31:24;7.20;;;3.58;;
61572;SDS011;47465;43.094;12.434;2023-11-19T06:40:41;6.80;;;3.55;;
61572;SDS011;47465;43.094;12.434;2023-11-19T06:43:31;8.38;;;4.15;;
61572;SDS011;47465;43.094;12.434;2023-11-19T06:46:18;6.97;;;4.18;;
61572;SDS011;47465;43.094;12.434;2023-11-19T06:49:03;5.95;;;3.47;;
61572;SDS011;47465;43.094;12.434;2023-11-19T06:54:36;7.72;;;3.72;;
61572;SDS011;47465;43.094;12.434;2023-11-19T07:00:34;7.53;;;4.05;;
61572;SDS011;47465;43.094;12.434;2023-11-19T07:03:15;17.48;;;5.70;;
61572;SDS011;47465;43.094;12.434;2023-11-19T07:06:08;9.90;;;5.18;;
61572;SDS011;47465;43.094;12.434;2023-11-19T07:08:50;13.15;;;4.85;;
61572;SDS011;47465;43.094;12.434;2023-11-19T07:12:01;12.02;;;5.10;;
61572;SDS011;47465;43.094;12.434;2023-11-19T07:14:36;9.13;;;4.40;;
61572;SDS011;47465;43.094;12.434;2023-11-19T07:23:09;8.13;;;4.35;;
61572;SDS011;47465;43.094;12.434;2023-11-19T07:28:33;10.65;;;4.63;;
61572;SDS011;47465;43.094;12.434;2023-11-19T07:31:30;6.60;;;3.47;;
61572;SDS011;47465;43.094;12.434;2023-11-19T08:01:16;10.15;;;5.00;;
61572;SDS011;47465;43.094;12.434;2023-11-19T08:03:42;7.35;;;4.70;;
61572;SDS011;47465;43.094;12.434;2023-11-19T08:06:24;9.18;;;5.43;;
61572;SDS011;47465;43.094;12.434;2023-11-19T08:08:56;8.60;;;4.75;;
61572;SDS011;47465;43.094;12.434;2023-11-19T08:11:30;8.32;;;4.55;;
61572;SDS011;47465;43.094;12.434;2023-11-19T08:21:38;9.88;;;4.90;;
61572;SDS011;47465;43.094;12.434;2023-11-19T08:23:49;8.77;;;4.43;;
61572;SDS011;47465;43.094;12.434;2023-11-19T08:30:22;10.93;;;3.63;;
61572;SDS011;47465;43.094;12.434;2023-11-19T08:32:52;8.50;;;4.47;;
61572;SDS011;47465;43.094;12.434;2023-11-19T08:35:19;7.05;;;3.83;;
61572;SDS011;47465;43.094;12.434;2023-11-19T09:06:30;8.30;;;4.72;;
61572;SDS011;47465;43.094;12.434;2023-11-19T09:12:18;11.57;;;5.80;;
61572;SDS011;47465;43.094;12.434;2023-11-19T09:15:11;14.48;;;7.60;;
61572;SDS011;47465;43.094;12.434;2023-11-19T09:17:41;17.33;;;6.75;;
61572;SDS011;47465;43.094;12.434;2023-11-19T09:20:11;11.35;;;7.03;;
61572;SDS011;47465;43.094;12.434;2023-11-19T09:29:44;14.02;;;7.22;;
61572;SDS011;47465;43.094;12.434;2023-11-19T09:32:45;12.45;;;7.85;;
61572;SDS011;47465;43.094;12.434;2023-11-19T09:35:42;13.38;;;7.95;;
61572;SDS011;47465;43.094;12.434;2023-11-19T09:42:00;11.43;;;6.75;;
61572;SDS011;47465;43.094;12.434;2023-11-19T12:46:38;6.25;;;3.42;;
61572;SDS011;47465;43.094;12.434;2023-11-19T12:49:24;6.95;;;3.97;;
61572;SDS011;47465;43.094;12.434;2023-11-19T12:52:25;7.75;;;3.97;;
61572;SDS011;47465;43.094;12.434;2023-11-19T12:55:59;6.03;;;3.33;;
61572;SDS011;47465;43.094;12.434;2023-11-19T12:59:16;7.03;;;3.60;;
61572;SDS011;47465;43.094;12.434;2023-11-19T13:11:56;11.40;;;3.78;;
61572;SDS011;47465;43.094;12.434;2023-11-19T13:14:38;6.57;;;3.50;;
61572;SDS011;47465;43.094;12.434;2023-11-19T13:17:16;5.85;;;3.65;;
61572;SDS011;47465;43.094;12.434;2023-11-19T13:20:08;7.10;;;2.85;;
61572;SDS011;47465;43.094;12.434;2023-11-19T13:22:56;8.80;;;3.63;;
61572;SDS011;47465;43.094;12.434;2023-11-19T13:25:31;5.55;;;3.08;;
61572;SDS011;47465;43.094;12.434;2023-11-19T13:28:03;6.03;;;4.28;;
61572;SDS011;47465;43.094;12.434;2023-11-19T13:30:34;8.15;;;4.30;;
61572;SDS011;47465;43.094;12.434;2023-11-19T13:45:19;9.75;;;4.10;;
61572;SDS011;47465;43.094;12.434;2023-11-19T13:48:07;8.27;;;3.42;;
61572;SDS011;47465;43.094;12.434;2023-11-19T13:50:41;9.43;;;3.72;;
61572;SDS011;47465;43.094;12.434;2023-11-19T13:53:18;8.15;;;3.40;;
61572;SDS011;47465;43.094;12.434;2023-11-19T13:55:54;6.68;;;3.28;;
61572;SDS011;47465;43.094;12.434;2023-11-19T13:58:26;8.45;;;4.88;;
61572;SDS011;47465;43.094;12.434;2023-11-19T14:01:02;19.77;;;8.30;;
61572;SDS011;47465;43.094;12.434;2023-11-19T14:06:09;10.50;;;5.32;;
61572;SDS011;47465;43.094;12.434;2023-11-19T14:08:35;10.43;;;5.30;;
61572;SDS011;47465;43.094;12.434;2023-11-19T14:13:47;17.60;;;7.22;;
61572;SDS011;47465;43.094;12.434;2023-11-19T14:16:33;17.25;;;7.53;;
61572;SDS011;47465;43.094;12.434;2023-11-19T14:19:37;12.65;;;5.60;;
61572;SDS011;47465;43.094;12.434;2023-11-19T14:22:06;12.32;;;5.72;;
61572;SDS011;47465;43.094;12.434;2023-11-19T14:24:53;9.25;;;4.90;;
61572;SDS011;47465;43.094;12.434;2023-11-19T14:27:22;6.68;;;4.20;;
61572;SDS011;47465;43.094;12.434;2023-11-19T14:29:59;6.68;;;3.60;;
61572;SDS011;47465;43.094;12.434;2023-11-19T14:42:16;6.55;;;4.30;;
61572;SDS011;47465;43.094;12.434;2023-11-19T14:44:48;12.50;;;4.70;;
61572;SDS011;47465;43.094;12.434;2023-11-19T14:47:57;12.23;;;5.78;;
61572;SDS011;47465;43.094;12.434;2023-11-19T14:55:02;11.80;;;5.03;;
61572;SDS011;47465;43.094;12.434;2023-11-19T14:58:28;11.70;;;4.93;;
61572;SDS011;47465;43.094;12.434;2023-11-19T15:19:22;10.68;;;5.75;;
61572;SDS011;47465;43.094;12.434;2023-11-19T17:07:04;7.60;;;4.10;;
61572;SDS011;47465;43.094;12.434;2023-11-19T17:09:54;11.90;;;6.03;;
61572;SDS011;47465;43.094;12.434;2023-11-19T17:13:17;14.73;;;5.47;;
61572;SDS011;47465;43.094;12.434;2023-11-19T17:16:07;11.18;;;5.50;;
61572;SDS011;47465;43.094;12.434;2023-11-19T17:18:44;10.55;;;6.53;;
61572;SDS011;47465;43.094;12.434;2023-11-19T17:21:18;9.88;;;4.22;;
61572;SDS011;47465;43.094;12.434;2023-11-19T17:23:47;10.07;;;4.50;;
61572;SDS011;47465;43.094;12.434;2023-11-19T17:26:20;10.40;;;4.30;;
61572;SDS011;47465;43.094;12.434;2023-11-19T17:29:19;5.45;;;3.53;;
61572;SDS011;47465;43.094;12.434;2023-11-19T17:32:18;8.68;;;3.80;;
61572;SDS011;47465;43.094;12.434;2023-11-19T17:35:10;5.90;;;3.15;;
61572;SDS011;47465;43.094;12.434;2023-11-19T17:37:59;9.85;;;3.70;;
61572;SDS011;47465;43.094;12.434;2023-11-19T17:47:35;8.98;;;4.30;;
61572;SDS011;47465;43.094;12.434;2023-11-19T17:53:37;9.85;;;4.15;;
61572;SDS011;47465;43.094;12.434;2023-11-19T17:56:19;11.27;;;4.30;;
61572;SDS011;47465;43.094;12.434;2023-11-19T17:59:49;8.70;;;3.88;;
61572;SDS011;47465;43.094;12.434;2023-11-19T18:06:53;8.93;;;4.47;;
61572;SDS011;47465;43.094;12.434;2023-11-19T18:09:43;6.75;;;4.28;;
61572;SDS011;47465;43.094;12.434;2023-11-19T18:12:18;6.00;;;3.50;;
61572;SDS011;47465;43.094;12.434;2023-11-19T18:17:50;9.52;;;4.35;;
61572;SDS011;47465;43.094;12.434;2023-11-19T19:10:03;7.05;;;3.83;;
61572;SDS011;47465;43.094;12.434;2023-11-19T19:30:17;10.50;;;3.75;;
61572;SDS011;47465;43.094;12.434;2023-11-19T19:33:27;9.05;;;3.67;;
61572;SDS011;47465;43.094;12.434;2023-11-19T19:38:35;9.88;;;4.72;;
61572;SDS011;47465;43.094;12.434;2023-11-19T20:07:46;8.52;;;4.10;;
61572;SDS011;47465;43.094;12.434;2023-11-19T20:14:16;8.70;;;3.50;;
61572;SDS011;47465;43.094;12.434;2023-11-19T20:16:53;10.45;;;3.88;;
61572;SDS011;47465;43.094;12.434;2023-11-19T20:19:26;7.40;;;3.17;;
61572;SDS011;47465;43.094;12.434;2023-11-19T20:22:01;10.02;;;3.72;;
61572;SDS011;47465;43.094;12.434;2023-11-19T20:24:30;9.82;;;3.55;;
61572;SDS011;47465;43.094;12.434;2023-11-19T20:29:58;13.30;;;4.55;;
61572;SDS011;47465;43.094;12.434;2023-11-19T20:32:25;10.13;;;4.07;;
61572;SDS011;47465;43.094;12.434;2023-11-19T20:34:51;9.80;;;4.75;;
61572;SDS011;47465;43.094;12.434;2023-11-19T20:37:24;12.00;;;4.32;;
61572;SDS011;47465;43.094;12.434;2023-11-19T20:40:01;7.47;;;3.58;;
61572;SDS011;47465;43.094;12.434;2023-11-19T20:42:29;11.25;;;3.78;;
61572;SDS011;47465;43.094;12.434;2023-11-19T20:45:00;11.25;;;4.55;;
61572;SDS011;47465;43.094;12.434;2023-11-19T20:47:33;17.83;;;5.07;;
61572;SDS011;47465;43.094;12.434;2023-11-19T20:50:04;8.07;;;3.45;;
61572;SDS011;47465;43.094;12.434;2023-11-19T20:52:36;10.05;;;4.10;;
61572;SDS011;47465;43.094;12.434;2023-11-19T20:55:10;7.38;;;3.85;;
61572;SDS011;47465;43.094;12.434;2023-11-19T20:57:54;10.60;;;3.67;;
61572;SDS011;47465;43.094;12.434;2023-11-19T21:00:20;15.73;;;4.15;;
61572;SDS011;47465;43.094;12.434;2023-11-19T21:03:04;5.72;;;2.80;;
61572;SDS011;47465;43.094;12.434;2023-11-19T21:08:30;12.68;;;3.70;;
61572;SDS011;47465;43.094;12.434;2023-11-19T21:21:40;11.75;;;4.07;;
61572;SDS011;47465;43.094;12.434;2023-11-19T21:38:10;10.57;;;4.55;;
61572;SDS011;47465;43.094;12.434;2023-11-19T21:40:52;9.95;;;3.83;;
61572;SDS011;47465;43.094;12.434;2023-11-19T21:43:19;6.55;;;3.08;;
61572;SDS011;47465;43.094;12.434;2023-11-19T21:49:03;9.32;;;3.75;;
61572;SDS011;47465;43.094;12.434;2023-11-19T22:02:39;5.93;;;2.38;;
61572;SDS011;47465;43.094;12.434;2023-11-19T22:05:07;6.60;;;2.70;;
61572;SDS011;47465;43.094;12.434;2023-11-19T22:08:11;12.43;;;4.50;;
61572;SDS011;47465;43.094;12.434;2023-11-19T22:10:46;9.98;;;4.75;;
61572;SDS011;47465;43.094;12.434;2023-11-19T22:13:24;9.80;;;3.70;;
61572;SDS011;47465;43.094;12.434;2023-11-19T22:16:10;7.25;;;2.83;;
61572;SDS011;47465;43.094;12.434;2023-11-19T22:25:57;11.35;;;4.72;;
61572;SDS011;47465;43.094;12.434;2023-11-19T22:28:39;11.63;;;3.58;;
61572;SDS011;47465;43.094;12.434;2023-11-19T22:34:21;6.80;;;3.22;;
61572;SDS011;47465;43.094;12.434;2023-11-19T22:40:21;8.80;;;2.95;;
61572;SDS011;47465;43.094;12.434;2023-11-19T22:52:29;6.75;;;2.90;;
61572;SDS011;47465;43.094;12.434;2023-11-19T22:55:17;7.72;;;2.83;;
61572;SDS011;47465;43.094;12.434;2023-11-19T22:58:28;11.18;;;2.95;;
61572;SDS011;47465;43.094;12.434;2023-11-19T23:04:22;12.43;;;3.25;;
61572;SDS011;47465;43.094;12.434;2023-11-19T23:07:22;5.88;;;2.70;;
61572;SDS011;47465;43.094;12.434;2023-11-19T23:09:54;6.57;;;2.45;;
61572;SDS011;47465;43.094;12.434;2023-11-19T23:12:27;6.13;;;2.90;;
61572;SDS011;47465;43.094;12.434;2023-11-19T23:14:56;8.18;;;3.25;;
61572;SDS011;47465;43.094;12.434;2023-11-19T23:17:45;6.45;;;3.00;;
61572;SDS011;47465;43.094;12.434;2023-11-19T23:20:42;8.38;;;2.63;;
61572;SDS011;47465;43.094;12.434;2023-11-19T23:23:23;6.55;;;3.17;;
61572;SDS011;47465;43.094;12.434;2023-11-19T23:26:12;9.32;;;2.88;;
61572;SDS011;47465;43.094;12.434;2023-11-19T23:29:11;9.40;;;3.03;;
61572;SDS011;47465;43.094;12.434;2023-11-19T23:32:00;6.18;;;2.83;;
61572;SDS011;47465;43.094;12.434;2023-11-19T23:34:48;8.45;;;2.55;;
61572;SDS011;47465;43.094;12.434;2023-11-19T23:37:41;8.88;;;2.97;;
61572;SDS011;47465;43.094;12.434;2023-11-19T23:40:21;12.00;;;3.60;;
61572;SDS011;47465;43.094;12.434;2023-11-19T23:43:09;5.05;;;3.30;;
61572;SDS011;47465;43.094;12.434;2023-11-19T23:45:49;5.88;;;2.95;;
61572;SDS011;47465;43.094;12.434;2023-11-19T23:48:25;8.18;;;3.40;;
61572;SDS011;47465;43.094;12.434;2023-11-19T23:50:55;14.77;;;3.72;;
61572;SDS011;47465;43.094;12.434;2023-11-19T23:53:49;12.85;;;3.58;;
61572;SDS011;47465;43.094;12.434;2023-11-19T23:56:46;8.95;;;3.15;;
61572;SDS011;47465;43.094;12.434;2023-11-19T23:59:24;6.90;;;2.97;;
